sensor_id;sensor_type;location;lat;lon;timestamp;P1;durP1;ratioP1;P2;durP2;ratioP2
19985;SDS011;10154;52.474;10.768;2022-10-15T00:00:03;12.07;;;9.80;;
19985;SDS011;10154;52.474;10.768;2022-10-15T00:06:23;14.33;;;9.50;;
19985;SDS011;10154;52.474;10.768;2022-10-15T00:08:48;14.97;;;9.90;;
19985;SDS011;10154;52.474;10.768;2022-10-15T00:11:15;11.43;;;9.27;;
19985;SDS011;10154;52.474;10.768;2022-10-15T00:13:45;13.73;;;10.03;;
19985;SDS011;10154;52.474;10.768;2022-10-15T00:16:12;12.53;;;9.60;;
19985;SDS011;10154;52.474;10.768;2022-10-15T00:18:39;13.83;;;9.90;;
19985;SDS011;10154;52.474;10.768;2022-10-15T00:21:09;12.83;;;10.23;;
19985;SDS011;10154;52.474;10.768;2022-10-15T00:23:36;14.43;;;10.20;;
19985;SDS011;10154;52.474;10.768;2022-10-15T00:26:03;11.17;;;9.90;;
19985;SDS011;10154;52.474;10.768;2022-10-15T00:28:30;12.13;;;9.83;;
19985;SDS011;10154;52.474;10.768;2022-10-15T00:31:00;13.07;;;9.67;;
19985;SDS011;10154;52.474;10.768;2022-10-15T00:33:27;11.67;;;9.60;;
19985;SDS011;10154;52.474;10.768;2022-10-15T00:36:02;14.07;;;9.43;;
19985;SDS011;10154;52.474;10.768;2022-10-15T00:38:28;11.57;;;9.40;;
19985;SDS011;10154;52.474;10.768;2022-10-15T00:40:54;12.43;;;9.70;;
19985;SDS011;10154;52.474;10.768;2022-10-15T00:46:19;12.77;;;10.50;;
19985;SDS011;10154;52.474;10.768;2022-10-15T00:48:53;11.73;;;9.30;;
19985;SDS011;10154;52.474;10.768;2022-10-15T00:51:21;13.47;;;8.93;;
19985;SDS011;10154;52.474;10.768;2022-10-15T00:53:50;16.70;;;9.90;;
19985;SDS011;10154;52.474;10.768;2022-10-15T00:56:16;11.73;;;9.30;;
19985;SDS011;10154;52.474;10.768;2022-10-15T00:58:45;13.20;;;10.37;;
19985;SDS011;10154;52.474;10.768;2022-10-15T01:01:10;11.60;;;9.93;;
19985;SDS011;10154;52.474;10.768;2022-10-15T01:03:36;11.70;;;9.60;;
19985;SDS011;10154;52.474;10.768;2022-10-15T01:06:01;11.07;;;9.87;;
19985;SDS011;10154;52.474;10.768;2022-10-15T01:08:27;13.80;;;9.43;;
19985;SDS011;10154;52.474;10.768;2022-10-15T01:10:56;10.87;;;9.73;;
19985;SDS011;10154;52.474;10.768;2022-10-15T01:13:30;11.57;;;9.23;;
19985;SDS011;10154;52.474;10.768;2022-10-15T01:18:56;12.13;;;9.70;;
19985;SDS011;10154;52.474;10.768;2022-10-15T01:21:48;13.27;;;9.67;;
19985;SDS011;10154;52.474;10.768;2022-10-15T01:27:26;13.20;;;10.27;;
19985;SDS011;10154;52.474;10.768;2022-10-15T01:32:57;12.00;;;9.50;;
19985;SDS011;10154;52.474;10.768;2022-10-15T01:40:31;14.40;;;10.17;;
19985;SDS011;10154;52.474;10.768;2022-10-15T01:42:59;12.30;;;10.40;;
19985;SDS011;10154;52.474;10.768;2022-10-15T01:45:33;12.27;;;10.50;;
19985;SDS011;10154;52.474;10.768;2022-10-15T01:48:02;13.20;;;10.60;;
19985;SDS011;10154;52.474;10.768;2022-10-15T01:50:29;14.37;;;10.37;;
19985;SDS011;10154;52.474;10.768;2022-10-15T01:52:56;14.57;;;10.37;;
19985;SDS011;10154;52.474;10.768;2022-10-15T01:55:22;15.00;;;10.63;;
19985;SDS011;10154;52.474;10.768;2022-10-15T01:57:49;13.70;;;10.17;;
19985;SDS011;10154;52.474;10.768;2022-10-15T02:00:15;11.90;;;10.30;;
19985;SDS011;10154;52.474;10.768;2022-10-15T02:02:41;13.93;;;11.30;;
19985;SDS011;10154;52.474;10.768;2022-10-15T02:05:09;15.73;;;11.13;;
19985;SDS011;10154;52.474;10.768;2022-10-15T02:08:01;14.10;;;11.03;;
19985;SDS011;10154;52.474;10.768;2022-10-15T02:11:09;17.40;;;11.40;;
19985;SDS011;10154;52.474;10.768;2022-10-15T02:13:40;16.27;;;11.50;;
19985;SDS011;10154;52.474;10.768;2022-10-15T02:18:59;16.70;;;11.73;;
19985;SDS011;10154;52.474;10.768;2022-10-15T02:21:32;15.20;;;11.80;;
19985;SDS011;10154;52.474;10.768;2022-10-15T02:24:05;13.57;;;10.93;;
19985;SDS011;10154;52.474;10.768;2022-10-15T02:26:35;14.67;;;10.60;;
19985;SDS011;10154;52.474;10.768;2022-10-15T02:29:01;12.80;;;10.93;;
19985;SDS011;10154;52.474;10.768;2022-10-15T02:31:30;14.57;;;12.10;;
19985;SDS011;10154;52.474;10.768;2022-10-15T02:33:58;16.30;;;11.60;;
19985;SDS011;10154;52.474;10.768;2022-10-15T02:36:26;19.00;;;12.10;;
19985;SDS011;10154;52.474;10.768;2022-10-15T02:38:51;13.00;;;11.57;;
19985;SDS011;10154;52.474;10.768;2022-10-15T02:41:19;13.90;;;11.33;;
19985;SDS011;10154;52.474;10.768;2022-10-15T02:43:45;16.03;;;11.67;;
19985;SDS011;10154;52.474;10.768;2022-10-15T02:46:11;13.40;;;11.50;;
19985;SDS011;10154;52.474;10.768;2022-10-15T02:48:46;14.70;;;11.77;;
19985;SDS011;10154;52.474;10.768;2022-10-15T02:51:13;16.13;;;11.97;;
19985;SDS011;10154;52.474;10.768;2022-10-15T02:53:38;15.87;;;12.20;;
19985;SDS011;10154;52.474;10.768;2022-10-15T02:56:04;16.87;;;13.17;;
19985;SDS011;10154;52.474;10.768;2022-10-15T02:58:30;21.97;;;12.83;;
19985;SDS011;10154;52.474;10.768;2022-10-15T03:00:56;15.17;;;12.60;;
19985;SDS011;10154;52.474;10.768;2022-10-15T03:03:21;16.53;;;12.77;;
19985;SDS011;10154;52.474;10.768;2022-10-15T03:05:47;16.43;;;13.33;;
19985;SDS011;10154;52.474;10.768;2022-10-15T03:08:12;16.03;;;13.43;;
19985;SDS011;10154;52.474;10.768;2022-10-15T03:10:38;17.80;;;13.47;;
19985;SDS011;10154;52.474;10.768;2022-10-15T03:13:04;16.43;;;13.27;;
19985;SDS011;10154;52.474;10.768;2022-10-15T03:15:30;17.03;;;13.40;;
19985;SDS011;10154;52.474;10.768;2022-10-15T03:17:55;22.07;;;13.83;;
19985;SDS011;10154;52.474;10.768;2022-10-15T03:20:21;17.87;;;13.60;;
19985;SDS011;10154;52.474;10.768;2022-10-15T03:22:46;22.87;;;13.70;;
19985;SDS011;10154;52.474;10.768;2022-10-15T03:25:12;18.50;;;13.83;;
19985;SDS011;10154;52.474;10.768;2022-10-15T03:27:37;19.07;;;13.33;;
19985;SDS011;10154;52.474;10.768;2022-10-15T03:30:03;18.43;;;12.57;;
19985;SDS011;10154;52.474;10.768;2022-10-15T03:32:29;18.83;;;14.17;;
19985;SDS011;10154;52.474;10.768;2022-10-15T03:34:54;19.43;;;12.30;;
19985;SDS011;10154;52.474;10.768;2022-10-15T03:37:19;19.37;;;12.23;;
19985;SDS011;10154;52.474;10.768;2022-10-15T03:39:45;19.13;;;13.37;;
19985;SDS011;10154;52.474;10.768;2022-10-15T03:42:10;19.60;;;12.70;;
19985;SDS011;10154;52.474;10.768;2022-10-15T03:44:37;16.57;;;13.17;;
19985;SDS011;10154;52.474;10.768;2022-10-15T03:47:03;17.43;;;13.07;;
19985;SDS011;10154;52.474;10.768;2022-10-15T03:49:28;20.17;;;14.47;;
19985;SDS011;10154;52.474;10.768;2022-10-15T03:51:54;21.93;;;14.47;;
19985;SDS011;10154;52.474;10.768;2022-10-15T03:54:20;23.03;;;14.80;;
19985;SDS011;10154;52.474;10.768;2022-10-15T03:56:45;22.80;;;14.63;;
19985;SDS011;10154;52.474;10.768;2022-10-15T03:59:11;24.10;;;14.73;;
19985;SDS011;10154;52.474;10.768;2022-10-15T04:01:36;25.70;;;15.47;;
19985;SDS011;10154;52.474;10.768;2022-10-15T04:04:02;20.27;;;14.43;;
19985;SDS011;10154;52.474;10.768;2022-10-15T04:06:27;22.17;;;14.30;;
19985;SDS011;10154;52.474;10.768;2022-10-15T04:08:53;22.57;;;15.10;;
19985;SDS011;10154;52.474;10.768;2022-10-15T04:11:18;25.00;;;15.47;;
19985;SDS011;10154;52.474;10.768;2022-10-15T04:13:47;24.97;;;15.57;;
19985;SDS011;10154;52.474;10.768;2022-10-15T04:16:13;23.43;;;15.97;;
19985;SDS011;10154;52.474;10.768;2022-10-15T04:18:39;25.20;;;16.80;;
19985;SDS011;10154;52.474;10.768;2022-10-15T04:21:05;25.23;;;16.13;;
19985;SDS011;10154;52.474;10.768;2022-10-15T04:23:30;25.40;;;15.73;;
19985;SDS011;10154;52.474;10.768;2022-10-15T04:25:59;26.33;;;16.33;;
19985;SDS011;10154;52.474;10.768;2022-10-15T04:28:27;25.73;;;16.33;;
19985;SDS011;10154;52.474;10.768;2022-10-15T04:30:56;27.37;;;17.37;;
19985;SDS011;10154;52.474;10.768;2022-10-15T04:33:22;30.03;;;17.90;;
19985;SDS011;10154;52.474;10.768;2022-10-15T04:35:56;30.43;;;19.30;;
19985;SDS011;10154;52.474;10.768;2022-10-15T04:38:32;35.07;;;19.47;;
19985;SDS011;10154;52.474;10.768;2022-10-15T04:41:01;34.53;;;19.10;;
19985;SDS011;10154;52.474;10.768;2022-10-15T04:43:49;36.77;;;20.23;;
19985;SDS011;10154;52.474;10.768;2022-10-15T04:46:15;32.23;;;17.83;;
19985;SDS011;10154;52.474;10.768;2022-10-15T04:48:40;37.07;;;19.93;;
19985;SDS011;10154;52.474;10.768;2022-10-15T04:51:07;31.57;;;18.00;;
19985;SDS011;10154;52.474;10.768;2022-10-15T04:53:34;35.80;;;20.10;;
19985;SDS011;10154;52.474;10.768;2022-10-15T04:56:03;32.93;;;19.33;;
19985;SDS011;10154;52.474;10.768;2022-10-15T04:58:30;38.53;;;20.13;;
19985;SDS011;10154;52.474;10.768;2022-10-15T05:01:00;39.37;;;19.50;;
19985;SDS011;10154;52.474;10.768;2022-10-15T05:03:27;32.73;;;18.33;;
19985;SDS011;10154;52.474;10.768;2022-10-15T05:05:53;30.23;;;18.80;;
19985;SDS011;10154;52.474;10.768;2022-10-15T05:08:18;29.00;;;17.63;;
19985;SDS011;10154;52.474;10.768;2022-10-15T05:10:44;29.97;;;17.23;;
19985;SDS011;10154;52.474;10.768;2022-10-15T05:13:09;31.37;;;17.47;;
19985;SDS011;10154;52.474;10.768;2022-10-15T05:15:35;28.80;;;17.87;;
19985;SDS011;10154;52.474;10.768;2022-10-15T05:18:00;26.80;;;16.83;;
19985;SDS011;10154;52.474;10.768;2022-10-15T05:20:26;29.73;;;18.30;;
19985;SDS011;10154;52.474;10.768;2022-10-15T05:22:52;24.70;;;16.17;;
19985;SDS011;10154;52.474;10.768;2022-10-15T05:25:17;26.10;;;15.93;;
19985;SDS011;10154;52.474;10.768;2022-10-15T05:27:43;28.33;;;17.10;;
19985;SDS011;10154;52.474;10.768;2022-10-15T05:30:08;27.87;;;17.17;;
19985;SDS011;10154;52.474;10.768;2022-10-15T05:32:34;27.10;;;17.83;;
19985;SDS011;10154;52.474;10.768;2022-10-15T05:34:59;31.70;;;18.03;;
19985;SDS011;10154;52.474;10.768;2022-10-15T05:37:25;35.70;;;20.13;;
19985;SDS011;10154;52.474;10.768;2022-10-15T05:39:50;33.27;;;18.63;;
19985;SDS011;10154;52.474;10.768;2022-10-15T05:42:16;31.80;;;19.17;;
19985;SDS011;10154;52.474;10.768;2022-10-15T05:44:41;32.67;;;18.10;;
19985;SDS011;10154;52.474;10.768;2022-10-15T05:47:07;29.70;;;18.13;;
19985;SDS011;10154;52.474;10.768;2022-10-15T05:49:36;30.37;;;17.97;;
19985;SDS011;10154;52.474;10.768;2022-10-15T05:52:01;37.60;;;20.50;;
19985;SDS011;10154;52.474;10.768;2022-10-15T05:54:27;32.47;;;18.67;;
19985;SDS011;10154;52.474;10.768;2022-10-15T05:56:52;29.53;;;17.77;;
19985;SDS011;10154;52.474;10.768;2022-10-15T05:59:19;32.93;;;18.83;;
19985;SDS011;10154;52.474;10.768;2022-10-15T06:01:45;31.80;;;19.23;;
19985;SDS011;10154;52.474;10.768;2022-10-15T06:04:10;31.57;;;17.93;;
19985;SDS011;10154;52.474;10.768;2022-10-15T06:06:36;31.17;;;19.00;;
19985;SDS011;10154;52.474;10.768;2022-10-15T06:09:01;31.23;;;18.13;;
19985;SDS011;10154;52.474;10.768;2022-10-15T06:11:27;37.97;;;17.00;;
19985;SDS011;10154;52.474;10.768;2022-10-15T06:13:52;26.90;;;16.83;;
19985;SDS011;10154;52.474;10.768;2022-10-15T06:16:18;29.40;;;17.57;;
19985;SDS011;10154;52.474;10.768;2022-10-15T06:18:44;32.63;;;18.50;;
19985;SDS011;10154;52.474;10.768;2022-10-15T06:21:10;26.53;;;16.57;;
19985;SDS011;10154;52.474;10.768;2022-10-15T06:23:35;28.87;;;17.23;;
19985;SDS011;10154;52.474;10.768;2022-10-15T06:26:04;29.13;;;17.03;;
19985;SDS011;10154;52.474;10.768;2022-10-15T06:28:31;30.00;;;17.13;;
19985;SDS011;10154;52.474;10.768;2022-10-15T06:30:58;29.47;;;17.80;;
19985;SDS011;10154;52.474;10.768;2022-10-15T06:33:24;31.37;;;18.43;;
19985;SDS011;10154;52.474;10.768;2022-10-15T06:35:49;34.73;;;19.70;;
19985;SDS011;10154;52.474;10.768;2022-10-15T06:38:15;40.67;;;21.03;;
19985;SDS011;10154;52.474;10.768;2022-10-15T06:40:40;35.53;;;19.90;;
19985;SDS011;10154;52.474;10.768;2022-10-15T06:43:06;34.53;;;19.97;;
19985;SDS011;10154;52.474;10.768;2022-10-15T06:45:37;37.80;;;19.57;;
19985;SDS011;10154;52.474;10.768;2022-10-15T06:48:04;36.70;;;19.77;;
19985;SDS011;10154;52.474;10.768;2022-10-15T06:50:31;33.00;;;19.73;;
19985;SDS011;10154;52.474;10.768;2022-10-15T06:52:57;42.23;;;22.23;;
19985;SDS011;10154;52.474;10.768;2022-10-15T06:55:23;41.97;;;22.10;;
19985;SDS011;10154;52.474;10.768;2022-10-15T06:57:48;39.47;;;21.17;;
19985;SDS011;10154;52.474;10.768;2022-10-15T07:00:14;35.07;;;20.73;;
19985;SDS011;10154;52.474;10.768;2022-10-15T07:02:40;37.30;;;21.00;;
19985;SDS011;10154;52.474;10.768;2022-10-15T07:05:07;42.90;;;22.50;;
19985;SDS011;10154;52.474;10.768;2022-10-15T07:07:32;45.00;;;23.27;;
19985;SDS011;10154;52.474;10.768;2022-10-15T07:09:58;41.07;;;21.50;;
19985;SDS011;10154;52.474;10.768;2022-10-15T07:12:23;44.53;;;21.83;;
19985;SDS011;10154;52.474;10.768;2022-10-15T07:14:49;41.53;;;22.07;;
19985;SDS011;10154;52.474;10.768;2022-10-15T07:17:15;36.30;;;20.53;;
19985;SDS011;10154;52.474;10.768;2022-10-15T07:19:41;38.60;;;21.00;;
19985;SDS011;10154;52.474;10.768;2022-10-15T07:22:06;36.70;;;20.10;;
19985;SDS011;10154;52.474;10.768;2022-10-15T07:24:32;36.60;;;20.80;;
19985;SDS011;10154;52.474;10.768;2022-10-15T07:26:57;36.60;;;21.20;;
19985;SDS011;10154;52.474;10.768;2022-10-15T07:29:23;38.87;;;20.83;;
19985;SDS011;10154;52.474;10.768;2022-10-15T07:31:49;38.40;;;20.73;;
19985;SDS011;10154;52.474;10.768;2022-10-15T07:34:14;35.73;;;20.90;;
19985;SDS011;10154;52.474;10.768;2022-10-15T07:36:40;37.10;;;21.67;;
19985;SDS011;10154;52.474;10.768;2022-10-15T07:39:05;33.47;;;20.60;;
19985;SDS011;10154;52.474;10.768;2022-10-15T07:41:31;29.33;;;18.77;;
19985;SDS011;10154;52.474;10.768;2022-10-15T07:43:56;31.50;;;17.37;;
19985;SDS011;10154;52.474;10.768;2022-10-15T07:46:22;42.97;;;23.47;;
19985;SDS011;10154;52.474;10.768;2022-10-15T07:48:47;45.27;;;23.67;;
19985;SDS011;10154;52.474;10.768;2022-10-15T07:51:13;45.50;;;24.03;;
19985;SDS011;10154;52.474;10.768;2022-10-15T07:53:38;40.97;;;22.87;;
19985;SDS011;10154;52.474;10.768;2022-10-15T07:56:05;43.57;;;22.97;;
19985;SDS011;10154;52.474;10.768;2022-10-15T07:58:35;43.27;;;23.60;;
19985;SDS011;10154;52.474;10.768;2022-10-15T08:01:04;41.37;;;22.50;;
19985;SDS011;10154;52.474;10.768;2022-10-15T08:03:31;42.40;;;21.90;;
19985;SDS011;10154;52.474;10.768;2022-10-15T08:06:00;43.07;;;23.40;;
19985;SDS011;10154;52.474;10.768;2022-10-15T08:08:26;45.13;;;24.13;;
19985;SDS011;10154;52.474;10.768;2022-10-15T08:10:51;39.37;;;21.80;;
19985;SDS011;10154;52.474;10.768;2022-10-15T08:13:17;38.80;;;21.87;;
19985;SDS011;10154;52.474;10.768;2022-10-15T08:15:42;48.60;;;24.87;;
19985;SDS011;10154;52.474;10.768;2022-10-15T08:18:08;43.20;;;23.30;;
19985;SDS011;10154;52.474;10.768;2022-10-15T08:20:37;40.10;;;21.50;;
19985;SDS011;10154;52.474;10.768;2022-10-15T08:23:03;39.23;;;22.23;;
19985;SDS011;10154;52.474;10.768;2022-10-15T08:25:31;47.37;;;24.40;;
19985;SDS011;10154;52.474;10.768;2022-10-15T08:27:57;48.77;;;25.10;;
19985;SDS011;10154;52.474;10.768;2022-10-15T08:30:23;42.67;;;21.93;;
19985;SDS011;10154;52.474;10.768;2022-10-15T08:32:48;49.20;;;24.87;;
19985;SDS011;10154;52.474;10.768;2022-10-15T08:35:14;43.03;;;24.60;;
19985;SDS011;10154;52.474;10.768;2022-10-15T08:37:39;43.63;;;23.30;;
19985;SDS011;10154;52.474;10.768;2022-10-15T08:40:05;48.43;;;25.70;;
19985;SDS011;10154;52.474;10.768;2022-10-15T08:42:35;47.07;;;25.00;;
19985;SDS011;10154;52.474;10.768;2022-10-15T08:45:06;43.03;;;23.97;;
19985;SDS011;10154;52.474;10.768;2022-10-15T08:47:38;43.17;;;22.73;;
19985;SDS011;10154;52.474;10.768;2022-10-15T08:52:48;43.57;;;22.50;;
19985;SDS011;10154;52.474;10.768;2022-10-15T08:55:16;40.87;;;21.93;;
19985;SDS011;10154;52.474;10.768;2022-10-15T09:00:17;45.63;;;22.83;;
19985;SDS011;10154;52.474;10.768;2022-10-15T09:02:50;43.27;;;21.80;;
19985;SDS011;10154;52.474;10.768;2022-10-15T09:07:52;41.57;;;21.37;;
19985;SDS011;10154;52.474;10.768;2022-10-15T09:13:11;36.77;;;20.90;;
19985;SDS011;10154;52.474;10.768;2022-10-15T09:15:42;33.83;;;20.03;;
19985;SDS011;10154;52.474;10.768;2022-10-15T09:18:23;40.13;;;19.93;;
19985;SDS011;10154;52.474;10.768;2022-10-15T09:20:51;34.53;;;18.70;;
19985;SDS011;10154;52.474;10.768;2022-10-15T09:23:22;33.80;;;19.30;;
19985;SDS011;10154;52.474;10.768;2022-10-15T09:25:52;31.23;;;19.47;;
19985;SDS011;10154;52.474;10.768;2022-10-15T09:29:00;32.60;;;18.97;;
19985;SDS011;10154;52.474;10.768;2022-10-15T09:31:45;31.87;;;19.10;;
19985;SDS011;10154;52.474;10.768;2022-10-15T09:34:21;31.27;;;17.37;;
19985;SDS011;10154;52.474;10.768;2022-10-15T09:36:53;28.03;;;17.27;;
19985;SDS011;10154;52.474;10.768;2022-10-15T09:39:33;27.27;;;16.57;;
19985;SDS011;10154;52.474;10.768;2022-10-15T09:44:50;30.87;;;18.50;;
19985;SDS011;10154;52.474;10.768;2022-10-15T09:47:22;28.53;;;17.40;;
19985;SDS011;10154;52.474;10.768;2022-10-15T09:49:49;23.60;;;14.80;;
19985;SDS011;10154;52.474;10.768;2022-10-15T09:54:56;22.85;;;15.00;;
19985;SDS011;10154;52.474;10.768;2022-10-15T09:57:27;26.63;;;16.48;;
19985;SDS011;10154;52.474;10.768;2022-10-15T09:59:56;23.10;;;15.15;;
19985;SDS011;10154;52.474;10.768;2022-10-15T10:02:26;26.93;;;17.10;;
19985;SDS011;10154;52.474;10.768;2022-10-15T10:04:53;24.30;;;15.90;;
19985;SDS011;10154;52.474;10.768;2022-10-15T10:07:35;27.98;;;19.00;;
19985;SDS011;10154;52.474;10.768;2022-10-15T10:10:22;26.60;;;18.03;;
19985;SDS011;10154;52.474;10.768;2022-10-15T10:12:49;29.13;;;18.30;;
19985;SDS011;10154;52.474;10.768;2022-10-15T10:15:35;25.60;;;16.40;;
19985;SDS011;10154;52.474;10.768;2022-10-15T10:18:02;25.50;;;16.87;;
19985;SDS011;10154;52.474;10.768;2022-10-15T10:20:31;24.33;;;15.60;;
19985;SDS011;10154;52.474;10.768;2022-10-15T10:22:58;23.87;;;16.27;;
19985;SDS011;10154;52.474;10.768;2022-10-15T10:27:54;22.73;;;16.63;;
19985;SDS011;10154;52.474;10.768;2022-10-15T10:30:22;22.67;;;16.07;;
19985;SDS011;10154;52.474;10.768;2022-10-15T10:32:48;31.33;;;18.23;;
19985;SDS011;10154;52.474;10.768;2022-10-15T10:35:23;21.43;;;15.47;;
19985;SDS011;10154;52.474;10.768;2022-10-15T10:37:50;24.33;;;16.03;;
19985;SDS011;10154;52.474;10.768;2022-10-15T10:40:27;20.63;;;14.17;;
19985;SDS011;10154;52.474;10.768;2022-10-15T10:43:40;21.60;;;15.13;;
19985;SDS011;10154;52.474;10.768;2022-10-15T10:45:50;31.48;;;16.60;;
19985;SDS011;10154;52.474;10.768;2022-10-15T10:48:21;19.43;;;12.23;;
19985;SDS011;10154;52.474;10.768;2022-10-15T10:51:01;20.05;;;13.32;;
19985;SDS011;10154;52.474;10.768;2022-10-15T10:53:29;19.17;;;12.47;;
19985;SDS011;10154;52.474;10.768;2022-10-15T10:55:54;17.43;;;12.63;;
19985;SDS011;10154;52.474;10.768;2022-10-15T10:58:21;18.70;;;12.73;;
19985;SDS011;10154;52.474;10.768;2022-10-15T11:00:51;18.77;;;12.68;;
19985;SDS011;10154;52.474;10.768;2022-10-15T11:03:32;17.88;;;11.88;;
19985;SDS011;10154;52.474;10.768;2022-10-15T11:09:37;19.20;;;12.27;;
19985;SDS011;10154;52.474;10.768;2022-10-15T11:15:01;18.10;;;11.10;;
19985;SDS011;10154;52.474;10.768;2022-10-15T11:17:33;13.60;;;10.75;;
19985;SDS011;10154;52.474;10.768;2022-10-15T11:20:25;16.02;;;11.73;;
19985;SDS011;10154;52.474;10.768;2022-10-15T11:31:17;18.27;;;12.70;;
19985;SDS011;10154;52.474;10.768;2022-10-15T11:36:58;17.47;;;13.23;;
19985;SDS011;10154;52.474;10.768;2022-10-15T11:42:11;17.75;;;11.00;;
19985;SDS011;10154;52.474;10.768;2022-10-15T11:44:58;15.47;;;10.97;;
19985;SDS011;10154;52.474;10.768;2022-10-15T11:59:00;9.88;;;7.80;;
19985;SDS011;10154;52.474;10.768;2022-10-15T12:01:31;10.70;;;7.70;;
19985;SDS011;10154;52.474;10.768;2022-10-15T12:04:05;11.43;;;7.88;;
19985;SDS011;10154;52.474;10.768;2022-10-15T12:06:36;11.57;;;8.27;;
19985;SDS011;10154;52.474;10.768;2022-10-15T12:09:04;10.43;;;8.05;;
19985;SDS011;10154;52.474;10.768;2022-10-15T12:11:43;9.27;;;7.25;;
19985;SDS011;10154;52.474;10.768;2022-10-15T12:19:28;8.32;;;6.80;;
19985;SDS011;10154;52.474;10.768;2022-10-15T12:22:04;6.93;;;6.22;;
19985;SDS011;10154;52.474;10.768;2022-10-15T12:30:28;5.80;;;5.22;;
19985;SDS011;10154;52.474;10.768;2022-10-15T12:35:01;6.40;;;5.78;;
19985;SDS011;10154;52.474;10.768;2022-10-15T12:37:28;5.80;;;5.03;;
19985;SDS011;10154;52.474;10.768;2022-10-15T12:39:59;7.93;;;4.78;;
19985;SDS011;10154;52.474;10.768;2022-10-15T12:42:29;8.00;;;4.13;;
19985;SDS011;10154;52.474;10.768;2022-10-15T12:44:56;4.72;;;4.15;;
19985;SDS011;10154;52.474;10.768;2022-10-15T12:50:22;5.88;;;4.60;;
19985;SDS011;10154;52.474;10.768;2022-10-15T12:52:51;5.60;;;4.00;;
19985;SDS011;10154;52.474;10.768;2022-10-15T12:55:23;3.95;;;3.60;;
19985;SDS011;10154;52.474;10.768;2022-10-15T12:57:50;4.00;;;3.70;;
19985;SDS011;10154;52.474;10.768;2022-10-15T13:00:27;4.20;;;3.80;;
19985;SDS011;10154;52.474;10.768;2022-10-15T13:02:55;4.00;;;3.70;;
19985;SDS011;10154;52.474;10.768;2022-10-15T13:05:30;4.68;;;3.80;;
19985;SDS011;10154;52.474;10.768;2022-10-15T13:07:57;4.03;;;3.67;;
19985;SDS011;10154;52.474;10.768;2022-10-15T13:10:33;6.05;;;3.42;;
19985;SDS011;10154;52.474;10.768;2022-10-15T13:13:02;4.25;;;3.95;;
19985;SDS011;10154;52.474;10.768;2022-10-15T13:15:29;3.00;;;2.80;;
19985;SDS011;10154;52.474;10.768;2022-10-15T13:17:56;3.83;;;3.43;;
19985;SDS011;10154;52.474;10.768;2022-10-15T13:20:28;4.30;;;3.10;;
19985;SDS011;10154;52.474;10.768;2022-10-15T13:39:42;4.50;;;4.10;;
19985;SDS011;10154;52.474;10.768;2022-10-15T13:42:17;4.40;;;4.00;;
19985;SDS011;10154;52.474;10.768;2022-10-15T13:44:54;4.60;;;4.20;;
19985;SDS011;10154;52.474;10.768;2022-10-15T13:47:35;3.90;;;3.60;;
19985;SDS011;10154;52.474;10.768;2022-10-15T13:55:26;5.67;;;3.47;;
19985;SDS011;10154;52.474;10.768;2022-10-15T13:57:56;4.73;;;4.30;;
19985;SDS011;10154;52.474;10.768;2022-10-15T14:00:30;4.60;;;4.20;;
19985;SDS011;10154;52.474;10.768;2022-10-15T14:03:06;5.23;;;4.50;;
19985;SDS011;10154;52.474;10.768;2022-10-15T14:05:32;4.60;;;4.20;;
19985;SDS011;10154;52.474;10.768;2022-10-15T14:07:57;4.83;;;4.13;;
19985;SDS011;10154;52.474;10.768;2022-10-15T14:10:23;4.33;;;4.00;;
19985;SDS011;10154;52.474;10.768;2022-10-15T14:12:52;5.03;;;4.20;;
19985;SDS011;10154;52.474;10.768;2022-10-15T14:18:08;7.13;;;4.20;;
19985;SDS011;10154;52.474;10.768;2022-10-15T14:20:34;4.47;;;4.07;;
19985;SDS011;10154;52.474;10.768;2022-10-15T14:23:00;4.93;;;4.20;;
19985;SDS011;10154;52.474;10.768;2022-10-15T14:25:25;4.50;;;4.10;;
19985;SDS011;10154;52.474;10.768;2022-10-15T14:27:51;5.20;;;4.70;;
19985;SDS011;10154;52.474;10.768;2022-10-15T14:30:29;5.63;;;4.30;;
19985;SDS011;10154;52.474;10.768;2022-10-15T14:32:56;7.00;;;4.13;;
19985;SDS011;10154;52.474;10.768;2022-10-15T14:35:28;6.77;;;4.43;;
19985;SDS011;10154;52.474;10.768;2022-10-15T14:40:28;4.83;;;4.33;;
19985;SDS011;10154;52.474;10.768;2022-10-15T14:45:25;4.70;;;4.30;;
19985;SDS011;10154;52.474;10.768;2022-10-15T14:47:53;5.10;;;4.50;;
19985;SDS011;10154;52.474;10.768;2022-10-15T14:50:22;4.50;;;4.10;;
19985;SDS011;10154;52.474;10.768;2022-10-15T14:52:50;5.03;;;4.30;;
19985;SDS011;10154;52.474;10.768;2022-10-15T14:55:28;5.73;;;4.17;;
19985;SDS011;10154;52.474;10.768;2022-10-15T14:57:57;4.70;;;4.10;;
19985;SDS011;10154;52.474;10.768;2022-10-15T15:00:46;4.20;;;3.90;;
19985;SDS011;10154;52.474;10.768;2022-10-15T15:03:12;4.23;;;3.87;;
19985;SDS011;10154;52.474;10.768;2022-10-15T15:05:44;3.70;;;3.40;;
19985;SDS011;10154;52.474;10.768;2022-10-15T15:08:14;4.10;;;3.80;;
19985;SDS011;10154;52.474;10.768;2022-10-15T15:10:40;4.10;;;3.60;;
19985;SDS011;10154;52.474;10.768;2022-10-15T15:13:09;4.37;;;3.67;;
19985;SDS011;10154;52.474;10.768;2022-10-15T15:15:35;3.80;;;3.50;;
19985;SDS011;10154;52.474;10.768;2022-10-15T15:18:01;4.47;;;3.67;;
19985;SDS011;10154;52.474;10.768;2022-10-15T15:20:26;3.80;;;3.50;;
19985;SDS011;10154;52.474;10.768;2022-10-15T15:22:53;3.50;;;3.20;;
19985;SDS011;10154;52.474;10.768;2022-10-15T15:25:29;3.60;;;3.30;;
19985;SDS011;10154;52.474;10.768;2022-10-15T15:27:58;3.53;;;3.23;;
19985;SDS011;10154;52.474;10.768;2022-10-15T15:30:25;4.53;;;2.93;;
19985;SDS011;10154;52.474;10.768;2022-10-15T15:32:51;3.37;;;3.07;;
19985;SDS011;10154;52.474;10.768;2022-10-15T15:35:22;3.03;;;2.80;;
19985;SDS011;10154;52.474;10.768;2022-10-15T15:37:58;3.37;;;3.13;;
19985;SDS011;10154;52.474;10.768;2022-10-15T15:40:23;3.00;;;2.80;;
19985;SDS011;10154;52.474;10.768;2022-10-15T15:42:51;3.33;;;2.90;;
19985;SDS011;10154;52.474;10.768;2022-10-15T15:45:26;3.90;;;3.60;;
19985;SDS011;10154;52.474;10.768;2022-10-15T15:47:52;3.70;;;3.40;;
19985;SDS011;10154;52.474;10.768;2022-10-15T15:50:18;3.50;;;3.20;;
19985;SDS011;10154;52.474;10.768;2022-10-15T15:52:45;5.00;;;2.80;;
19985;SDS011;10154;52.474;10.768;2022-10-15T15:55:11;5.27;;;2.63;;
19985;SDS011;10154;52.474;10.768;2022-10-15T15:57:37;2.80;;;2.60;;
19985;SDS011;10154;52.474;10.768;2022-10-15T16:00:06;2.97;;;2.77;;
19985;SDS011;10154;52.474;10.768;2022-10-15T16:02:33;3.40;;;3.03;;
19985;SDS011;10154;52.474;10.768;2022-10-15T16:04:59;3.40;;;3.10;;
19985;SDS011;10154;52.474;10.768;2022-10-15T16:07:26;3.20;;;2.90;;
19985;SDS011;10154;52.474;10.768;2022-10-15T16:09:52;3.50;;;2.50;;
19985;SDS011;10154;52.474;10.768;2022-10-15T16:12:17;4.70;;;3.10;;
19985;SDS011;10154;52.474;10.768;2022-10-15T16:14:43;3.10;;;2.90;;
19985;SDS011;10154;52.474;10.768;2022-10-15T16:17:08;4.13;;;2.70;;
19985;SDS011;10154;52.474;10.768;2022-10-15T16:19:33;3.40;;;2.67;;
19985;SDS011;10154;52.474;10.768;2022-10-15T16:21:59;2.80;;;2.60;;
19985;SDS011;10154;52.474;10.768;2022-10-15T16:24:24;3.10;;;2.77;;